Time;durP1;ratioP1;P1;durP2;ratioP2;P2;SDS_P1;SDS_P2;PMS_P1;PMS_P2;Temp;Humidity;BMP_temperature;BMP_pressure;BME280_temperature;BME280_humidity;BME280_pressure;Samples;Min_cycle;Max_cycle;Signal;HPM_P1;HPM_P2
2021/05/12 00:00:24;;;;;;;6.22;2.72;;;;;;;20.18;32.65;99591.40;1687485;83;21566;-82
2021/05/12 00:02:51;;;;;;;7.15;2.47;;;;;;;20.07;32.55;99593.86;1686595;83;22182;-82
2021/05/12 00:05:19;;;;;;;7.87;2.80;;;;;;;20.01;32.69;99586.75;1692552;83;21204;-82
2021/05/12 00:07:46;;;;;;;4.72;2.55;;;;;;;19.96;32.60;99589.28;1689888;83;21853;-84
2021/05/12 00:10:13;;;;;;;7.22;2.40;;;;;;;20.03;32.65;99586.52;1689875;83;21145;-82
2021/05/12 00:12:40;;;;;;;7.05;2.65;;;;;;;20.01;32.67;99588.09;1691124;83;21177;-82
2021/05/12 00:15:11;;;;;;;8.58;2.77;;;;;;;19.87;32.73;99583.97;1671319;84;21403;-84
2021/05/12 00:17:39;;;;;;;7.25;2.67;;;;;;;19.79;32.91;99587.80;1690008;84;21221;-84
2021/05/12 00:20:07;;;;;;;5.47;2.50;;;;;;;19.73;33.08;99585.52;1686046;84;21209;-82
2021/05/12 00:22:38;;;;;;;6.80;2.70;;;;;;;19.69;33.14;99587.02;1686624;83;21183;-81
2021/05/12 00:25:11;;;;;;;6.60;2.75;;;;;;;19.61;33.34;99587.34;1686960;83;21642;-84
2021/05/12 00:27:38;;;;;;;9.28;2.75;;;;;;;19.60;33.35;99579.55;1693315;84;21886;-82
2021/05/12 00:30:10;;;;;;;6.97;2.83;;;;;;;19.46;33.55;99574.91;1688532;83;21209;-82
2021/05/12 00:32:38;;;;;;;5.78;2.87;;;;;;;19.47;33.58;99575.22;1690061;83;21217;-82
2021/05/12 00:35:09;;;;;;;6.12;2.85;;;;;;;19.45;33.60;99574.61;1688992;83;21566;-81
2021/05/12 00:37:35;;;;;;;7.08;2.77;;;;;;;19.45;33.47;99574.61;1690242;83;21208;-82
2021/05/12 00:40:01;;;;;;;5.15;2.77;;;;;;;19.40;33.55;99574.48;1690318;84;21164;-80
2021/05/12 00:42:30;;;;;;;7.42;2.87;;;;;;;19.32;33.65;99576.42;1688121;83;21096;-81
2021/05/12 00:45:04;;;;;;;7.05;2.72;;;;;;;19.28;33.71;99576.61;1689739;84;21180;-80
2021/05/12 00:47:31;;;;;;;6.12;2.60;;;;;;;19.26;33.72;99567.97;1691089;84;21187;-81
2021/05/12 00:49:58;;;;;;;7.50;2.90;;;;;;;19.21;33.78;99569.72;1695427;83;21548;-82
2021/05/12 00:52:25;;;;;;;6.15;2.85;;;;;;;19.10;34.00;99567.28;1692427;83;22065;-80
2021/05/12 00:54:53;;;;;;;7.60;2.90;;;;;;;19.09;34.08;99573.67;1688353;83;21199;-83
2021/05/12 00:57:19;;;;;;;8.73;2.70;;;;;;;19.07;34.19;99572.56;1689353;84;21193;-80
2021/05/12 00:59:50;;;;;;;8.20;2.52;;;;;;;19.04;34.26;99572.20;1689291;83;21231;-80
2021/05/12 01:02:16;;;;;;;8.18;3.00;;;;;;;19.06;34.32;99560.74;1691338;83;21157;-80
2021/05/12 01:04:42;;;;;;;5.70;2.77;;;;;;;19.07;34.27;99567.73;1687767;84;21237;-79
2021/05/12 01:07:08;;;;;;;11.12;2.92;;;;;;;19.07;34.25;99567.73;1666264;84;21639;-79
2021/05/12 01:09:34;;;;;;;9.30;3.00;;;;;;;19.11;34.08;99561.70;1669014;84;21022;-82
2021/05/12 01:12:00;;;;;;;9.18;2.95;;;;;;;19.11;34.04;99566.22;1693508;83;21186;-79
2021/05/12 01:14:26;;;;;;;7.50;2.85;;;;;;;19.07;34.15;99565.06;1688233;83;21671;-80
2021/05/12 01:16:52;;;;;;;9.58;3.00;;;;;;;18.97;34.29;99561.06;1689680;83;21243;-78
2021/05/12 01:19:17;;;;;;;6.10;2.67;;;;;;;18.86;34.42;99566.34;1716523;82;21223;-78
2021/05/12 01:21:43;;;;;;;7.10;2.70;;;;;;;18.85;34.44;99560.19;1690022;83;20952;-79
2021/05/12 01:24:13;;;;;;;5.35;2.70;;;;;;;18.79;34.56;99553.03;1690453;83;21077;-80
2021/05/12 01:26:42;;;;;;;9.90;2.85;;;;;;;18.77;34.64;99555.12;1686392;83;22408;-80
2021/05/12 01:29:07;;;;;;;6.12;2.80;;;;;;;18.77;34.59;99549.77;1689794;83;21254;-80
2021/05/12 01:31:45;;;;;;;7.37;2.87;;;;;;;18.66;34.83;99552.15;1691401;84;21007;-79
2021/05/12 01:34:17;;;;;;;5.85;2.75;;;;;;;18.70;34.71;99549.03;1688040;83;21168;-80
2021/05/12 01:36:47;;;;;;;8.13;3.08;;;;;;;18.57;35.04;99534.77;1690990;84;21253;-79
2021/05/12 01:39:15;;;;;;;7.80;3.08;;;;;;;18.49;35.15;99540.43;1690152;84;21290;-79
2021/05/12 01:41:46;;;;;;;5.67;2.80;;;;;;;18.51;35.19;99538.88;1687282;83;22117;-79
2021/05/12 01:44:12;;;;;;;6.40;2.90;;;;;;;18.46;35.27;99543.55;1691000;83;21216;-80
2021/05/12 01:46:42;;;;;;;7.95;3.17;;;;;;;18.48;35.20;99541.45;1675295;82;21678;-80
2021/05/12 01:49:11;;;;;;;10.18;3.00;;;;;;;18.40;35.39;99544.44;1695975;82;21201;-79
2021/05/12 01:51:38;;;;;;;8.40;3.37;;;;;;;18.37;35.44;99540.88;1690755;83;21233;-80
2021/05/12 01:54:07;;;;;;;8.15;3.02;;;;;;;18.41;35.31;99535.36;1668831;84;21453;-80
2021/05/12 01:56:36;;;;;;;8.75;3.10;;;;;;;18.29;35.42;99533.43;1689523;84;21122;-80
2021/05/12 01:59:10;;;;;;;9.00;2.90;;;;;;;18.24;35.51;99534.63;1688555;83;21187;-80
2021/05/12 02:01:36;;;;;;;7.85;3.27;;;;;;;18.12;35.78;99531.05;1692355;82;21165;-80
2021/05/12 02:04:06;;;;;;;9.75;2.83;;;;;;;18.14;35.83;99533.50;1693814;83;21035;-81
2021/05/12 02:06:32;;;;;;;8.05;3.08;;;;;;;18.08;35.92;99526.64;1693824;83;21228;-82
2021/05/12 02:09:05;;;;;;;6.85;2.90;;;;;;;18.08;36.01;99528.51;1667517;84;21036;-80
2021/05/12 02:11:35;;;;;;;6.08;2.90;;;;;;;18.04;36.11;99517.45;1688631;83;21144;-81
2021/05/12 02:14:01;;;;;;;9.18;3.22;;;;;;;18.03;36.15;99521.16;1690066;83;21228;-80
2021/05/12 02:16:26;;;;;;;4.35;2.80;;;;;;;18.05;36.22;99522.27;1669524;83;21675;-80
2021/05/12 02:18:52;;;;;;;7.67;2.80;;;;;;;17.99;36.35;99517.81;1665047;84;23443;-79
2021/05/12 02:21:20;;;;;;;8.63;3.22;;;;;;;18.01;36.40;99519.76;1688165;83;21202;-80
2021/05/12 02:23:48;;;;;;;8.68;2.77;;;;;;;18.07;36.23;99517.02;1685891;83;21219;-79
2021/05/12 02:26:16;;;;;;;7.17;3.02;;;;;;;18.11;36.11;99524.06;1688991;84;21156;-78
2021/05/12 02:28:45;;;;;;;8.88;2.95;;;;;;;18.07;36.13;99525.03;1691129;83;21160;-78
2021/05/12 02:31:11;;;;;;;7.35;2.90;;;;;;;18.07;36.09;99524.19;1674200;84;21252;-81
2021/05/12 02:33:36;;;;;;;5.58;2.90;;;;;;;17.99;36.38;99525.83;1716702;82;22432;-78
2021/05/12 02:36:03;;;;;;;5.08;2.75;;;;;;;18.00;36.24;99524.80;1669882;84;21160;-79
2021/05/12 02:38:30;;;;;;;9.20;3.22;;;;;;;17.98;36.38;99529.55;1715009;82;21227;-79
2021/05/12 02:40:57;;;;;;;8.10;3.08;;;;;;;17.96;36.37;99519.09;1689943;84;21243;-78
2021/05/12 02:43:23;;;;;;;6.25;2.80;;;;;;;17.92;36.50;99522.70;1684201;84;21160;-79
2021/05/12 02:45:49;;;;;;;7.25;3.50;;;;;;;17.85;36.60;99521.92;1686987;83;20906;-79
2021/05/12 02:48:17;;;;;;;6.67;3.02;;;;;;;17.82;36.77;99519.69;1689485;82;20963;-79
2021/05/12 02:50:44;;;;;;;7.17;3.15;;;;;;;17.86;36.68;99526.21;1691675;82;21184;-79
2021/05/12 02:53:13;;;;;;;8.80;2.75;;;;;;;17.78;36.96;99518.48;1694674;82;21002;-79
2021/05/12 02:55:42;;;;;;;8.50;2.77;;;;;;;17.75;37.22;99521.59;1694639;82;21331;-84
2021/05/12 02:58:08;;;;;;;8.15;2.65;;;;;;;17.74;37.09;99519.95;1692789;83;21090;-79
2021/05/12 03:00:38;;;;;;;10.80;3.25;;;;;;;17.70;37.28;99520.11;1689821;83;21229;-79
2021/05/12 03:03:07;;;;;;;6.97;2.77;;;;;;;17.66;37.54;99520.23;1688731;83;21215;-79
2021/05/12 03:05:33;;;;;;;8.55;2.70;;;;;;;17.61;37.57;99518.74;1689235;83;21248;-79
2021/05/12 03:07:59;;;;;;;5.42;2.47;;;;;;;17.64;37.64;99511.63;1715135;82;21098;-79
2021/05/12 03:10:29;;;;;;;6.67;2.98;;;;;;;17.55;37.81;99510.55;1689490;84;21196;-80
2021/05/12 03:12:55;;;;;;;6.15;2.75;;;;;;;17.57;37.77;99515.17;1690618;83;21608;-79
2021/05/12 03:15:23;;;;;;;6.00;2.70;;;;;;;17.48;38.03;99511.14;1669822;84;21153;-79
2021/05/12 03:17:54;;;;;;;6.83;3.05;;;;;;;17.46;38.25;99508.38;1668908;84;21220;-81
2021/05/12 03:20:23;;;;;;;8.50;2.85;;;;;;;17.47;38.18;99510.83;1691048;83;21643;-79
2021/05/12 03:22:49;;;;;;;6.08;2.70;;;;;;;17.43;38.39;99518.95;1668584;84;21183;-80
2021/05/12 03:25:15;;;;;;;6.75;2.72;;;;;;;17.42;38.45;99517.34;1682162;84;21076;-83
2021/05/12 03:27:42;;;;;;;5.28;2.80;;;;;;;17.62;38.23;99517.69;1690818;83;21169;-79
2021/05/12 03:30:11;;;;;;;6.00;2.80;;;;;;;17.58;38.24;99519.45;1690653;83;21228;-80
2021/05/12 03:32:37;;;;;;;5.12;2.85;;;;;;;17.59;38.36;99513.09;1666185;84;21169;-81
2021/05/12 03:35:05;;;;;;;5.80;2.62;;;;;;;17.63;38.29;99509.98;1691318;84;21024;-80
2021/05/12 03:37:32;;;;;;;;;;;;;;;17.52;38.46;99512.31;1697738;83;21642;-82
2021/05/12 03:39:57;;;;;;;9.25;2.80;;;;;;;17.50;38.60;99514.39;1692469;83;20304;-83
2021/05/12 03:42:23;;;;;;;7.78;2.80;;;;;;;17.49;38.64;99518.09;1694735;84;20991;-79
2021/05/12 03:44:49;;;;;;;8.83;2.70;;;;;;;17.54;38.58;99516.94;1690866;83;21248;-80
2021/05/12 03:47:15;;;;;;;6.17;2.98;;;;;;;17.55;38.68;99513.22;1692840;83;20941;-80
2021/05/12 03:49:42;;;;;;;5.70;2.85;;;;;;;17.61;38.58;99510.73;1696349;82;20929;-80
2021/05/12 03:52:10;;;;;;;5.40;2.70;;;;;;;17.65;38.63;99519.92;1697719;82;27341;-81
2021/05/12 03:54:37;;;;;;;8.70;2.80;;;;;;;17.70;38.65;99516.09;1690398;82;21219;-79
2021/05/12 03:57:09;;;;;;;9.95;2.90;;;;;;;17.71;38.64;99518.55;1693572;83;22165;-79
2021/05/12 03:59:35;;;;;;;6.58;2.77;;;;;;;17.67;38.70;99519.20;1670950;84;21228;-80
2021/05/12 04:02:01;;;;;;;5.05;2.67;;;;;;;17.65;38.81;99511.41;1716493;81;20985;-82
2021/05/12 04:04:29;;;;;;;5.85;2.87;;;;;;;17.68;38.84;99512.81;1689424;83;20946;-79
2021/05/12 04:06:57;;;;;;;9.00;3.17;;;;;;;17.74;38.79;99508.77;1690612;83;21172;-79
2021/05/12 04:09:29;;;;;;;6.60;2.80;;;;;;;17.73;38.92;99512.99;1690859;83;21212;-80
2021/05/12 04:11:54;;;;;;;3.95;2.30;;;;;;;17.79;39.00;99513.95;1687790;83;21199;-80
2021/05/12 04:14:20;;;;;;;8.35;2.87;;;;;;;17.89;38.76;99512.45;1688375;83;20964;-79
2021/05/12 04:16:49;;;;;;;10.65;2.70;;;;;;;17.97;38.75;99518.55;1692957;83;20955;-79
2021/05/12 04:19:17;;;;;;;6.12;2.90;;;;;;;18.05;38.62;99517.77;1693187;83;21173;-79
2021/05/12 04:21:43;;;;;;;7.08;2.62;;;;;;;18.02;38.67;99516.03;1691075;83;21374;-79
2021/05/12 04:24:10;;;;;;;8.05;2.75;;;;;;;18.08;38.62;99519.16;1689181;83;21060;-79
2021/05/12 04:26:36;;;;;;;6.55;2.60;;;;;;;18.10;38.56;99521.08;1690188;83;21212;-79
2021/05/12 04:29:05;;;;;;;8.03;2.90;;;;;;;18.15;38.76;99517.74;1716949;82;21614;-79
2021/05/12 04:31:33;;;;;;;7.65;2.75;;;;;;;18.22;38.58;99513.97;1690402;83;21189;-80
2021/05/12 04:34:02;;;;;;;6.97;2.70;;;;;;;18.25;38.68;99510.05;1666325;84;22618;-79
2021/05/12 04:36:28;;;;;;;9.33;2.92;;;;;;;18.36;38.61;99516.51;1666360;84;21054;-79
2021/05/12 04:38:54;;;;;;;8.90;2.52;;;;;;;18.56;38.42;99510.40;1690862;84;21021;-83
2021/05/12 04:41:19;;;;;;;7.70;2.72;;;;;;;18.68;37.90;99512.34;1688272;83;20959;-79
2021/05/12 04:43:46;;;;;;;8.85;2.80;;;;;;;18.68;38.07;99506.98;1665141;84;20958;-79
2021/05/12 04:46:12;;;;;;;7.05;2.70;;;;;;;18.77;38.15;99504.30;1690529;83;21287;-80
2021/05/12 04:48:41;;;;;;;7.20;2.83;;;;;;;18.87;37.86;99500.58;1665508;82;21194;-81
2021/05/12 04:51:07;;;;;;;5.65;2.58;;;;;;;18.98;37.69;99503.81;1693773;83;21217;-80
2021/05/12 04:53:36;;;;;;;6.30;2.80;;;;;;;19.05;37.60;99514.94;1670042;83;20978;-80
2021/05/12 04:56:04;;;;;;;6.83;2.98;;;;;;;19.03;37.78;99515.70;1689309;84;21224;-80
2021/05/12 04:58:34;;;;;;;8.25;2.87;;;;;;;19.08;37.88;99515.83;1699622;82;21238;-80
2021/05/12 05:01:01;;;;;;;8.30;3.00;;;;;;;19.09;38.02;99510.78;1693750;82;21723;-79
2021/05/12 05:03:29;;;;;;;9.30;2.65;;;;;;;19.24;37.92;99512.52;1714117;82;21514;-80
2021/05/12 05:05:55;;;;;;;6.92;2.75;;;;;;;19.21;37.88;99512.97;1693620;84;21165;-83
2021/05/12 05:08:21;;;;;;;6.87;2.98;;;;;;;19.16;38.20;99514.19;1694159;83;20931;-80
2021/05/12 05:10:48;;;;;;;8.63;2.65;;;;;;;19.30;37.99;99506.24;1716362;82;21072;-79
2021/05/12 05:13:14;;;;;;;9.90;2.60;;;;;;;19.37;38.11;99508.30;1692464;83;21223;-79
2021/05/12 05:15:40;;;;;;;10.48;2.60;;;;;;;19.59;37.80;99506.39;1691087;83;21212;-82
2021/05/12 05:18:09;;;;;;;7.75;2.65;;;;;;;19.64;37.66;99511.89;1694652;83;20922;-80
2021/05/12 05:20:35;;;;;;;14.40;3.10;;;;;;;19.56;37.78;99512.24;1691718;83;21734;-80
2021/05/12 05:23:01;;;;;;;7.45;2.87;;;;;;;19.72;37.75;99514.22;1717551;82;22238;-82
2021/05/12 05:25:27;;;;;;;7.45;2.70;;;;;;;19.81;37.61;99513.89;1671359;83;21260;-80
2021/05/12 05:27:53;;;;;;;7.85;2.52;;;;;;;19.89;37.55;99518.93;1691911;83;21231;-83
2021/05/12 05:30:19;;;;;;;8.63;2.50;;;;;;;19.85;37.32;99515.07;1692833;83;21009;-82
2021/05/12 05:32:48;;;;;;;11.03;3.02;;;;;;;20.02;37.27;99513.31;1694430;82;21689;-80
2021/05/12 05:35:15;;;;;;;7.08;2.55;;;;;;;20.00;37.61;99514.62;1692771;83;21239;-84
2021/05/12 05:37:43;;;;;;;;;;;;;;;20.17;37.37;99510.70;1690709;83;21212;-82
2021/05/12 05:40:14;;;;;;;11.85;2.70;;;;;;;20.21;36.99;99515.86;1691829;83;20607;-81
2021/05/12 05:42:43;;;;;;;10.58;2.90;;;;;;;20.26;37.24;99511.97;1694985;83;21275;-83
2021/05/12 05:45:09;;;;;;;9.55;2.85;;;;;;;20.37;37.10;99512.47;1693703;83;21201;-80
2021/05/12 05:47:37;;;;;;;9.53;2.90;;;;;;;20.50;37.07;99519.42;1693842;84;21276;-82
2021/05/12 05:50:07;;;;;;;6.78;2.50;;;;;;;20.53;36.91;99512.78;1690406;82;21152;-82
2021/05/12 05:52:34;;;;;;;9.58;2.72;;;;;;;20.76;36.93;99514.61;1690031;84;21196;-80
2021/05/12 05:55:03;;;;;;;7.08;2.60;;;;;;;20.91;36.67;99512.73;1704935;81;21208;-84
2021/05/12 05:57:30;;;;;;;7.30;2.62;;;;;;;20.95;36.20;99489.73;1697681;82;21189;-85
2021/05/12 05:59:58;;;;;;;11.80;2.90;;;;;;;21.16;36.10;99503.81;1691572;83;21239;-81
2021/05/12 06:02:24;;;;;;;8.88;2.80;;;;;;;21.31;35.78;99507.80;1696923;83;21181;-82
2021/05/12 06:04:54;;;;;;;7.87;2.50;;;;;;;21.38;35.91;99511.16;1695980;83;20963;-82
2021/05/12 06:07:21;;;;;;;11.20;2.87;;;;;;;21.45;35.88;99505.62;1676803;83;21161;-79
2021/05/12 06:09:47;;;;;;;6.10;2.47;;;;;;;21.47;35.41;99503.49;1695460;83;21205;-81
2021/05/12 06:12:13;;;;;;;13.93;2.37;;;;;;;21.57;35.26;99500.20;1696767;82;21901;-81
2021/05/12 06:14:44;;;;;;;8.08;2.65;;;;;;;21.68;34.85;99497.95;1693556;82;21180;-84
2021/05/12 06:17:13;;;;;;;9.05;2.45;;;;;;;21.85;34.92;99506.80;1720708;81;21206;-82
2021/05/12 06:19:39;;;;;;;9.75;2.50;;;;;;;21.87;35.06;99498.50;1695778;82;21172;-80
2021/05/12 06:22:05;;;;;;;8.48;2.35;;;;;;;21.96;34.86;99500.24;1716273;81;21144;-82
2021/05/12 06:24:32;;;;;;;9.23;2.58;;;;;;;22.12;34.54;99493.20;1690576;83;21238;-80
2021/05/12 06:26:58;;;;;;;6.70;2.60;;;;;;;22.14;34.43;99499.96;1688945;84;21184;-80
2021/05/12 06:29:25;;;;;;;5.37;2.22;;;;;;;22.27;33.90;99496.63;1689801;83;21370;-78
2021/05/12 06:31:54;;;;;;;6.08;2.05;;;;;;;22.28;33.44;99488.82;1691971;83;21211;-81
2021/05/12 06:34:20;;;;;;;6.85;2.30;;;;;;;22.34;32.98;99488.69;1675125;84;21165;-79
2021/05/12 06:36:46;;;;;;;5.95;2.20;;;;;;;22.55;32.88;99481.66;1719519;82;21384;-81
2021/05/12 06:39:12;;;;;;;6.08;2.20;;;;;;;22.43;32.28;99474.24;1691907;83;20930;-81
2021/05/12 06:41:37;;;;;;;8.30;2.33;;;;;;;22.49;32.06;99474.59;1692834;83;20907;-81
2021/05/12 06:44:04;;;;;;;8.35;2.60;;;;;;;22.54;32.05;99476.01;1692938;83;20945;-86
2021/05/12 06:46:32;;;;;;;7.53;2.30;;;;;;;22.73;32.12;99471.61;1688004;83;21172;-79
2021/05/12 06:48:58;;;;;;;10.98;2.22;;;;;;;22.79;32.35;99481.91;1689411;82;21235;-84
2021/05/12 06:51:27;;;;;;;6.12;2.40;;;;;;;22.94;32.34;99470.75;1693601;83;21018;-82
2021/05/12 06:53:54;;;;;;;6.65;2.40;;;;;;;22.94;32.40;99473.44;1686553;83;21136;-86
2021/05/12 06:56:21;;;;;;;6.85;2.40;;;;;;;23.05;31.95;99462.78;1688946;83;21184;-80
2021/05/12 06:58:49;;;;;;;7.80;2.52;;;;;;;23.12;31.88;99468.81;1690297;83;21187;-83
2021/05/12 07:01:17;;;;;;;10.53;2.20;;;;;;;23.18;31.80;99466.44;1692874;82;22105;-83
2021/05/12 07:03:44;;;;;;;8.60;2.55;;;;;;;23.13;31.85;99470.41;1695742;82;21049;-85
2021/05/12 07:06:10;;;;;;;8.68;2.25;;;;;;;23.28;32.11;99471.89;1692201;83;21188;-83
2021/05/12 07:08:38;;;;;;;8.98;2.35;;;;;;;23.39;32.02;99466.59;1691107;83;20941;-84
2021/05/12 07:11:10;;;;;;;8.28;2.17;;;;;;;23.46;31.95;99469.35;1693704;82;21228;-86
2021/05/12 07:13:40;;;;;;;7.00;2.20;;;;;;;23.51;32.05;99461.84;1693993;84;21720;-83
2021/05/12 07:16:05;;;;;;;7.90;2.25;;;;;;;23.56;32.20;99468.61;1669994;84;21236;-81
2021/05/12 07:18:33;;;;;;;5.45;2.22;;;;;;;23.75;32.31;99464.95;1689275;83;21108;-85
2021/05/12 07:21:01;;;;;;;6.30;2.50;;;;;;;23.75;32.65;99459.55;1689391;83;21669;-84
2021/05/12 07:23:34;;;;;;;5.55;2.05;;;;;;;23.83;32.58;99465.00;1716942;82;21268;-86
2021/05/12 07:26:02;;;;;;;7.22;2.10;;;;;;;23.79;32.63;99457.17;1692204;82;22291;-84
2021/05/12 07:28:29;;;;;;;5.75;2.20;;;;;;;23.69;32.37;99457.09;1695612;83;21181;-84
2021/05/12 07:31:00;;;;;;;8.93;2.20;;;;;;;23.88;32.66;99465.08;1690161;83;21751;-85
2021/05/12 07:33:31;;;;;;;6.37;2.00;;;;;;;24.07;32.75;99459.24;1715555;82;21228;-85
2021/05/12 07:35:59;;;;;;;5.40;2.00;;;;;;;24.16;32.53;99456.28;1690613;84;21179;-86
2021/05/12 07:38:26;;;;;;;6.30;2.27;;;;;;;24.23;32.72;99454.72;1666848;83;21319;-86
2021/05/12 07:40:54;;;;;;;6.60;1.75;;;;;;;24.20;32.51;99450.66;1691045;83;28300;-86
2021/05/12 07:43:21;;;;;;;10.13;2.15;;;;;;;24.27;32.31;99446.35;1689153;83;21152;-83
2021/05/12 07:45:47;;;;;;;7.90;2.00;;;;;;;24.22;32.21;99448.48;1716001;82;20956;-84
2021/05/12 07:48:14;;;;;;;8.23;2.10;;;;;;;24.14;32.35;99444.95;1692419;83;21205;-83
2021/05/12 07:50:41;;;;;;;13.18;2.12;;;;;;;24.19;32.18;99449.02;1689386;83;21219;-85
2021/05/12 07:53:08;;;;;;;6.67;1.90;;;;;;;24.21;32.25;99446.89;1690161;83;21306;-85
2021/05/12 07:55:39;;;;;;;7.08;1.80;;;;;;;24.27;32.00;99445.83;1692063;82;21214;-83
2021/05/12 07:58:09;;;;;;;6.08;1.85;;;;;;;24.31;32.39;99457.70;1696145;82;21216;-86
2021/05/12 08:00:43;;;;;;;5.70;1.90;;;;;;;24.41;32.18;99450.72;1694826;82;21235;-84
2021/05/12 08:03:09;;;;;;;5.05;1.90;;;;;;;24.47;32.20;99446.96;1688562;84;21122;-86
2021/05/12 08:05:37;;;;;;;6.75;2.00;;;;;;;24.59;32.17;99440.81;1680906;83;21189;-83
2021/05/12 08:08:06;;;;;;;7.12;1.77;;;;;;;24.66;31.97;99448.13;1690831;83;21200;-83
2021/05/12 08:10:35;;;;;;;9.78;2.00;;;;;;;24.81;31.83;99440.61;1690480;83;21709;-83
2021/05/12 08:13:02;;;;;;;5.20;1.80;;;;;;;24.85;31.74;99448.98;1688626;83;21484;-83
2021/05/12 08:15:30;;;;;;;5.25;2.00;;;;;;;24.88;31.62;99437.09;1667604;84;22817;-84
2021/05/12 08:18:01;;;;;;;7.53;2.02;;;;;;;24.92;31.23;99427.90;1691222;84;21217;-84
2021/05/12 08:20:30;;;;;;;6.08;1.80;;;;;;;24.95;31.37;99436.81;1687932;83;21221;-84
2021/05/12 08:23:01;;;;;;;6.25;2.12;;;;;;;24.95;31.43;99431.41;1689780;83;21580;-84
2021/05/12 08:25:27;;;;;;;3.98;1.70;;;;;;;24.95;31.43;99436.81;1692843;83;21211;-85
2021/05/12 08:27:54;;;;;;;7.35;2.00;;;;;;;25.09;31.58;99435.23;1666218;84;21982;-83
2021/05/12 08:30:23;;;;;;;5.78;1.77;;;;;;;25.09;31.60;99424.42;1688675;83;21243;-83
2021/05/12 08:32:48;;;;;;;3.70;1.62;;;;;;;25.24;31.26;99427.64;1685701;83;21248;-85
2021/05/12 08:35:17;;;;;;;3.75;1.85;;;;;;;25.19;31.28;99433.61;1672018;84;21209;-83
2021/05/12 08:37:42;;;;;;;8.40;1.92;;;;;;;25.17;31.12;99425.77;1693692;83;21229;-85
2021/05/12 08:40:09;;;;;;;4.92;1.87;;;;;;;25.20;30.94;99421.70;1695725;83;21234;-82
2021/05/12 08:42:35;;;;;;;5.33;1.72;;;;;;;25.34;31.01;99428.22;1693011;82;21188;-85
2021/05/12 08:45:01;;;;;;;5.72;1.80;;;;;;;25.47;31.33;99415.23;1690433;82;21518;-88
2021/05/12 08:47:29;;;;;;;11.45;1.98;;;;;;;25.39;31.16;99419.30;1669020;83;20922;-88
2021/05/12 08:49:59;;;;;;;7.28;1.85;;;;;;;25.54;30.94;99418.45;1669177;84;21195;-91
2021/05/12 08:52:25;;;;;;;6.08;1.70;;;;;;;25.60;30.99;99414.65;1668999;84;21523;-90
2021/05/12 08:54:53;;;;;;;6.22;1.75;;;;;;;25.81;30.76;99420.83;1696660;82;21583;-88
2021/05/12 08:57:19;;;;;;;6.78;1.87;;;;;;;25.82;30.63;99417.02;1673891;84;21325;-87
2021/05/12 09:01:19;;;;;;;4.12;1.45;;;;;;;25.80;30.58;99415.94;1666462;84;37852;-88
2021/05/12 09:03:47;;;;;;;12.18;1.60;;;;;;;25.97;30.13;99414.29;1664082;84;21208;-85
2021/05/12 09:06:16;;;;;;;8.63;1.65;;;;;;;26.13;30.08;99407.47;1673110;84;21351;-86
2021/05/12 09:08:47;;;;;;;6.92;1.37;;;;;;;26.17;29.76;99402.33;1669135;84;21125;-85
2021/05/12 09:11:15;;;;;;;4.40;1.60;;;;;;;26.37;30.12;99406.27;1668706;84;21038;-86
2021/05/12 09:13:47;;;;;;;4.20;1.47;;;;;;;26.41;30.14;99405.96;1671788;84;21534;-88
2021/05/12 09:16:30;;;;;;;7.92;1.62;;;;;;;26.64;29.72;99403.67;1671189;84;21109;-88
2021/05/12 09:19:15;;;;;;;7.00;1.50;;;;;;;26.73;29.23;99397.95;1670761;84;21195;-87
2021/05/12 09:21:53;;;;;;;3.47;1.50;;;;;;;26.71;29.27;99398.78;1618949;84;21074;-88
2021/05/12 09:24:37;;;;;;;7.03;1.60;;;;;;;26.79;29.31;99396.81;1667728;84;21177;-88
2021/05/12 09:27:22;;;;;;;4.80;1.27;;;;;;;26.89;29.52;99401.90;1668647;85;21647;-90
2021/05/12 09:29:51;;;;;;;3.87;1.40;;;;;;;26.86;28.53;99391.90;1663114;85;21660;-85
2021/05/12 09:32:22;;;;;;;4.72;1.25;;;;;;;26.80;28.49;99395.73;1667901;84;21042;-85
2021/05/12 09:35:01;;;;;;;7.53;1.62;;;;;;;26.86;28.49;99394.61;1670802;84;21193;-85
2021/05/12 09:37:35;;;;;;;6.67;1.32;;;;;;;26.99;28.54;99405.89;1669277;84;20986;-85
2021/05/12 09:40:09;;;;;;;9.65;1.80;;;;;;;26.99;28.48;99397.77;1670951;85;21109;-84
2021/05/12 09:42:40;;;;;;;4.42;1.30;;;;;;;27.07;28.78;99394.43;1670175;84;21078;-85
2021/05/12 09:45:26;;;;;;;5.87;1.90;;;;;;;27.04;28.49;99391.73;1665976;84;21299;-85
2021/05/12 09:48:03;;;;;;;7.40;1.25;;;;;;;27.16;29.00;99398.15;1668906;84;26039;-87
2021/05/12 09:50:39;;;;;;;4.97;1.55;;;;;;;27.05;28.53;99385.78;1643739;84;21718;-87
2021/05/12 09:53:11;;;;;;;5.28;1.60;;;;;;;27.00;28.76;99384.45;1670870;85;21113;-85
2021/05/12 09:55:43;;;;;;;11.40;1.80;;;;;;;27.17;28.64;99388.90;1664104;85;21655;-85
2021/05/12 09:58:20;;;;;;;7.78;1.40;;;;;;;27.18;28.75;99386.46;1669493;84;21077;-85
2021/05/12 10:00:51;;;;;;;6.83;1.40;;;;;;;27.06;28.24;99395.52;1665539;85;20991;-86
2021/05/12 10:03:24;;;;;;;7.35;1.55;;;;;;;27.18;28.08;99391.88;1672408;84;21691;-85
2021/05/12 10:06:02;;;;;;;6.28;1.42;;;;;;;27.13;28.78;99400.59;1670243;84;21078;-84
2021/05/12 10:08:38;;;;;;;4.33;1.37;;;;;;;27.09;28.29;99386.81;1667184;85;21619;-87
2021/05/12 10:11:09;;;;;;;4.40;1.50;;;;;;;27.12;28.42;99388.95;1648533;85;22458;-88
2021/05/12 10:13:43;;;;;;;8.18;1.50;;;;;;;27.31;28.58;99382.83;1647088;85;21717;-87
2021/05/12 10:16:10;;;;;;;5.72;1.32;;;;;;;27.49;28.69;99391.62;1671591;84;21038;-85
2021/05/12 10:18:38;;;;;;;5.55;1.47;;;;;;;27.82;28.57;99385.00;1670738;84;21743;-86
2021/05/12 10:21:06;;;;;;;5.65;1.40;;;;;;;27.75;28.86;99389.99;1673620;84;21181;-86
2021/05/12 10:23:39;;;;;;;3.20;1.40;;;;;;;27.95;28.74;99388.94;1669594;84;21145;-84
2021/05/12 10:26:07;;;;;;;6.95;1.50;;;;;;;28.08;28.68;99373.88;1670131;84;21141;-87
2021/05/12 10:28:38;;;;;;;5.28;1.45;;;;;;;27.96;28.72;99370.21;1670823;84;21132;-88
2021/05/12 10:31:08;;;;;;;5.72;1.70;;;;;;;28.00;28.02;99369.07;1672043;85;21113;-91
2021/05/12 10:33:52;;;;;;;8.08;1.87;;;;;;;27.99;28.15;99370.19;1674581;85;21114;-90
2021/05/12 10:36:23;;;;;;;6.25;1.90;;;;;;;28.10;27.59;99367.59;1642943;85;21129;-88
2021/05/12 10:38:56;;;;;;;6.53;1.90;;;;;;;28.10;27.59;99367.59;1645611;84;21043;-87
2021/05/12 10:41:46;;;;;;;7.95;1.75;;;;;;;27.92;27.63;99372.68;1671472;85;21133;-89
2021/05/12 10:44:20;;;;;;;2.95;1.20;;;;;;;28.13;27.72;99379.22;1643737;84;20982;-90
2021/05/12 10:47:09;;;;;;;6.17;1.60;;;;;;;28.13;27.72;99379.22;1673051;84;21026;-91
2021/05/12 10:49:37;;;;;;;5.80;1.60;;;;;;;28.02;27.36;99370.97;1645015;85;21161;-88
2021/05/12 10:52:08;;;;;;;7.22;1.50;;;;;;;28.02;27.36;99370.97;1670934;85;21149;-88
2021/05/12 10:54:45;;;;;;;6.00;1.47;;;;;;;28.04;27.16;99375.55;1641538;85;21097;-85
2021/05/12 10:57:32;;;;;;;;;;;;;;;28.00;27.48;99359.05;1669446;84;21144;-87
2021/05/12 11:00:02;;;;;;;6.50;1.40;;;;;;;28.16;27.23;99382.71;1652158;84;20243;-91
2021/05/12 11:02:53;;;;;;;3.60;1.50;;;;;;;28.09;27.45;99378.18;1665187;84;21180;-86
2021/05/12 11:05:28;;;;;;;4.37;1.40;;;;;;;28.15;27.38;99370.23;1623094;86;21256;-85
2021/05/12 11:08:19;;;;;;;7.85;1.60;;;;;;;28.23;27.44;99375.02;1653931;85;21017;-85
2021/05/12 11:10:57;;;;;;;4.92;1.60;;;;;;;28.22;27.48;99365.81;1672650;83;21580;-86
2021/05/12 11:13:28;;;;;;;6.15;1.45;;;;;;;28.30;27.75;99376.80;1669834;84;21145;-86
2021/05/12 11:15:56;;;;;;;3.77;1.50;;;;;;;28.30;27.75;99376.80;1671729;85;21252;-85
2021/05/12 11:18:40;;;;;;;7.67;1.50;;;;;;;28.37;27.84;99370.20;1643192;85;21051;-85
2021/05/12 11:21:38;;;;;;;6.30;1.77;;;;;;;28.29;27.58;99369.78;1672040;84;21672;-82
2021/05/12 11:24:11;;;;;;;5.28;1.70;;;;;;;28.42;27.50;99359.28;1666150;84;21006;-83
2021/05/12 11:32:07;;;;;;;6.27;1.67;;;;;;;28.72;27.17;99361.30;1665062;84;21117;-88
2021/05/12 11:34:36;;;;;;;5.40;1.60;;;;;;;28.77;26.74;99354.41;1640213;85;21006;-88
2021/05/12 11:37:11;;;;;;;6.92;1.52;;;;;;;28.73;26.83;99337.08;1660807;85;21212;-84
2021/05/12 11:39:40;;;;;;;9.58;1.65;;;;;;;28.64;26.64;99343.20;1638419;86;21141;-88
2021/05/12 11:42:25;;;;;;;5.12;1.75;;;;;;;28.82;26.66;99335.30;1664241;85;21921;-89
2021/05/12 11:45:17;;;;;;;8.63;1.60;;;;;;;28.74;26.57;99337.34;1643963;86;21055;-90
2021/05/12 11:48:02;;;;;;;3.92;1.40;;;;;;;28.81;26.47;99330.98;1663080;85;20987;-90
2021/05/12 11:50:35;;;;;;;9.45;1.70;;;;;;;28.82;26.09;99329.86;1663218;84;21559;-90